sensor_id;sensor_type;location;lat;lon;timestamp;P1;durP1;ratioP1;P2;durP2;ratioP2
74912;SDS011;63878;55.624;37.304;2024-01-25T00:08:27;18.10;;;7.65;;
74912;SDS011;63878;55.624;37.304;2024-01-25T00:18:28;18.20;;;7.25;;
74912;SDS011;63878;55.624;37.304;2024-01-25T00:28:28;14.20;;;7.18;;
74912;SDS011;63878;55.624;37.304;2024-01-25T00:48:29;19.43;;;6.87;;
74912;SDS011;63878;55.624;37.304;2024-01-25T00:58:30;18.20;;;8.43;;
74912;SDS011;63878;55.624;37.304;2024-01-25T01:08:31;18.50;;;7.18;;
74912;SDS011;63878;55.624;37.304;2024-01-25T01:18:32;18.20;;;9.43;;
74912;SDS011;63878;55.624;37.304;2024-01-25T01:28:34;14.57;;;6.03;;
74912;SDS011;63878;55.624;37.304;2024-01-25T01:38:34;16.88;;;7.60;;
74912;SDS011;63878;55.624;37.304;2024-01-25T01:48:35;10.67;;;5.67;;
74912;SDS011;63878;55.624;37.304;2024-01-25T01:58:36;13.13;;;6.53;;
74912;SDS011;63878;55.624;37.304;2024-01-25T02:08:37;11.85;;;5.22;;
74912;SDS011;63878;55.624;37.304;2024-01-25T02:18:37;11.30;;;5.30;;
74912;SDS011;63878;55.624;37.304;2024-01-25T02:28:38;13.10;;;6.70;;
74912;SDS011;63878;55.624;37.304;2024-01-25T02:38:38;10.27;;;4.23;;
74912;SDS011;63878;55.624;37.304;2024-01-25T02:48:39;13.75;;;6.53;;
74912;SDS011;63878;55.624;37.304;2024-01-25T02:58:40;11.57;;;5.60;;
74912;SDS011;63878;55.624;37.304;2024-01-25T03:08:40;11.75;;;5.53;;
74912;SDS011;63878;55.624;37.304;2024-01-25T03:28:41;10.82;;;5.07;;
74912;SDS011;63878;55.624;37.304;2024-01-25T03:48:42;12.63;;;5.53;;
74912;SDS011;63878;55.624;37.304;2024-01-25T03:58:43;12.77;;;6.40;;
74912;SDS011;63878;55.624;37.304;2024-01-25T04:08:44;12.30;;;6.30;;
74912;SDS011;63878;55.624;37.304;2024-01-25T04:18:45;10.43;;;5.13;;
74912;SDS011;63878;55.624;37.304;2024-01-25T04:28:45;11.00;;;5.93;;
74912;SDS011;63878;55.624;37.304;2024-01-25T04:48:46;9.77;;;3.85;;
74912;SDS011;63878;55.624;37.304;2024-01-25T04:58:47;8.80;;;4.18;;
74912;SDS011;63878;55.624;37.304;2024-01-25T05:08:47;10.03;;;5.07;;
74912;SDS011;63878;55.624;37.304;2024-01-25T05:18:48;10.00;;;5.67;;
74912;SDS011;63878;55.624;37.304;2024-01-25T05:28:48;6.88;;;3.92;;
74912;SDS011;63878;55.624;37.304;2024-01-25T05:48:49;9.77;;;4.68;;
74912;SDS011;63878;55.624;37.304;2024-01-25T06:08:51;7.93;;;4.17;;
74912;SDS011;63878;55.624;37.304;2024-01-25T06:18:54;10.65;;;4.70;;
74912;SDS011;63878;55.624;37.304;2024-01-25T06:28:54;7.65;;;4.75;;
74912;SDS011;63878;55.624;37.304;2024-01-25T06:38:55;8.83;;;5.10;;
74912;SDS011;63878;55.624;37.304;2024-01-25T06:48:55;11.17;;;4.67;;
74912;SDS011;63878;55.624;37.304;2024-01-25T06:58:56;12.77;;;5.28;;
74912;SDS011;63878;55.624;37.304;2024-01-25T07:08:57;10.23;;;5.40;;
74912;SDS011;63878;55.624;37.304;2024-01-25T07:18:57;9.73;;;5.13;;
74912;SDS011;63878;55.624;37.304;2024-01-25T07:38:59;9.73;;;4.85;;
74912;SDS011;63878;55.624;37.304;2024-01-25T07:48:59;12.88;;;5.82;;
74912;SDS011;63878;55.624;37.304;2024-01-25T07:59:00;13.05;;;5.80;;
74912;SDS011;63878;55.624;37.304;2024-01-25T08:09:00;9.70;;;5.43;;
74912;SDS011;63878;55.624;37.304;2024-01-25T08:19:01;12.68;;;6.65;;
74912;SDS011;63878;55.624;37.304;2024-01-25T08:29:01;10.73;;;5.83;;
74912;SDS011;63878;55.624;37.304;2024-01-25T08:39:02;8.80;;;4.10;;
74912;SDS011;63878;55.624;37.304;2024-01-25T08:49:02;6.20;;;3.55;;
74912;SDS011;63878;55.624;37.304;2024-01-25T08:59:03;13.10;;;4.95;;
74912;SDS011;63878;55.624;37.304;2024-01-25T09:09:03;10.40;;;4.75;;
74912;SDS011;63878;55.624;37.304;2024-01-25T09:19:04;8.80;;;4.50;;
74912;SDS011;63878;55.624;37.304;2024-01-25T09:29:05;12.23;;;5.40;;
74912;SDS011;63878;55.624;37.304;2024-01-25T09:39:05;11.50;;;5.55;;
74912;SDS011;63878;55.624;37.304;2024-01-25T09:59:07;8.82;;;4.18;;
74912;SDS011;63878;55.624;37.304;2024-01-25T10:09:08;9.80;;;4.78;;
74912;SDS011;63878;55.624;37.304;2024-01-25T10:29:09;12.63;;;6.03;;
74912;SDS011;63878;55.624;37.304;2024-01-25T10:49:11;8.65;;;4.38;;
74912;SDS011;63878;55.624;37.304;2024-01-25T10:59:12;8.20;;;3.03;;
74912;SDS011;63878;55.624;37.304;2024-01-25T11:09:17;13.70;;;7.25;;
74912;SDS011;63878;55.624;37.304;2024-01-25T11:29:21;9.07;;;4.85;;
74912;SDS011;63878;55.624;37.304;2024-01-25T11:39:22;9.05;;;5.10;;
74912;SDS011;63878;55.624;37.304;2024-01-25T11:59:26;13.95;;;6.43;;
74912;SDS011;63878;55.624;37.304;2024-01-25T12:09:27;10.55;;;5.70;;
74912;SDS011;63878;55.624;37.304;2024-01-25T12:19:28;12.90;;;5.80;;
74912;SDS011;63878;55.624;37.304;2024-01-25T12:29:28;12.15;;;6.07;;
74912;SDS011;63878;55.624;37.304;2024-01-25T12:49:29;14.82;;;6.13;;
74912;SDS011;63878;55.624;37.304;2024-01-25T12:59:29;12.70;;;4.95;;
74912;SDS011;63878;55.624;37.304;2024-01-25T13:19:30;17.93;;;7.63;;
74912;SDS011;63878;55.624;37.304;2024-01-25T13:39:31;11.77;;;6.05;;
74912;SDS011;63878;55.624;37.304;2024-01-25T13:59:33;15.50;;;7.87;;
74912;SDS011;63878;55.624;37.304;2024-01-25T14:09:33;12.68;;;6.57;;
74912;SDS011;63878;55.624;37.304;2024-01-25T14:19:34;15.48;;;7.13;;
74912;SDS011;63878;55.624;37.304;2024-01-25T14:29:36;20.90;;;9.27;;
74912;SDS011;63878;55.624;37.304;2024-01-25T14:39:37;27.42;;;14.48;;
74912;SDS011;63878;55.624;37.304;2024-01-25T14:49:38;20.25;;;10.23;;
74912;SDS011;63878;55.624;37.304;2024-01-25T14:59:38;20.80;;;9.67;;
74912;SDS011;63878;55.624;37.304;2024-01-25T15:09:39;20.53;;;10.27;;
74912;SDS011;63878;55.624;37.304;2024-01-25T15:19:39;21.03;;;8.57;;
74912;SDS011;63878;55.624;37.304;2024-01-25T15:29:40;23.38;;;10.25;;
74912;SDS011;63878;55.624;37.304;2024-01-25T15:39:41;19.40;;;9.82;;
74912;SDS011;63878;55.624;37.304;2024-01-25T15:59:42;20.80;;;10.82;;
74912;SDS011;63878;55.624;37.304;2024-01-25T16:09:42;32.33;;;14.43;;
74912;SDS011;63878;55.624;37.304;2024-01-25T16:29:43;21.05;;;9.57;;
74912;SDS011;63878;55.624;37.304;2024-01-25T16:49:44;26.70;;;12.13;;
74912;SDS011;63878;55.624;37.304;2024-01-25T16:59:44;27.45;;;12.73;;
74912;SDS011;63878;55.624;37.304;2024-01-25T17:09:45;24.10;;;11.30;;
74912;SDS011;63878;55.624;37.304;2024-01-25T17:19:46;27.92;;;13.02;;
74912;SDS011;63878;55.624;37.304;2024-01-25T17:29:46;27.93;;;13.13;;
74912;SDS011;63878;55.624;37.304;2024-01-25T17:39:46;36.75;;;16.48;;
74912;SDS011;63878;55.624;37.304;2024-01-25T17:59:48;33.28;;;15.77;;
74912;SDS011;63878;55.624;37.304;2024-01-25T18:09:48;29.60;;;13.23;;
74912;SDS011;63878;55.624;37.304;2024-01-25T18:19:49;28.80;;;12.60;;
74912;SDS011;63878;55.624;37.304;2024-01-25T18:29:49;35.87;;;15.57;;
74912;SDS011;63878;55.624;37.304;2024-01-25T18:39:50;33.08;;;14.95;;
74912;SDS011;63878;55.624;37.304;2024-01-25T18:49:51;30.77;;;14.53;;
74912;SDS011;63878;55.624;37.304;2024-01-25T18:59:51;36.20;;;16.67;;
74912;SDS011;63878;55.624;37.304;2024-01-25T19:09:52;36.50;;;17.42;;
74912;SDS011;63878;55.624;37.304;2024-01-25T19:29:53;31.30;;;15.73;;
74912;SDS011;63878;55.624;37.304;2024-01-25T19:49:54;34.85;;;15.20;;
74912;SDS011;63878;55.624;37.304;2024-01-25T19:59:55;29.00;;;13.65;;
74912;SDS011;63878;55.624;37.304;2024-01-25T20:09:57;31.63;;;13.52;;
74912;SDS011;63878;55.624;37.304;2024-01-25T20:19:58;30.98;;;13.80;;
74912;SDS011;63878;55.624;37.304;2024-01-25T20:29:59;37.65;;;16.98;;
74912;SDS011;63878;55.624;37.304;2024-01-25T20:50:00;35.90;;;16.17;;
74912;SDS011;63878;55.624;37.304;2024-01-25T21:00:01;37.40;;;16.35;;
74912;SDS011;63878;55.624;37.304;2024-01-25T21:10:01;40.20;;;17.52;;
74912;SDS011;63878;55.624;37.304;2024-01-25T21:20:02;37.80;;;17.25;;
74912;SDS011;63878;55.624;37.304;2024-01-25T21:30:03;33.47;;;15.27;;
74912;SDS011;63878;55.624;37.304;2024-01-25T21:40:03;38.55;;;16.23;;
74912;SDS011;63878;55.624;37.304;2024-01-25T21:50:05;38.25;;;15.80;;
74912;SDS011;63878;55.624;37.304;2024-01-25T22:00:06;33.55;;;15.38;;
74912;SDS011;63878;55.624;37.304;2024-01-25T22:10:07;32.88;;;13.70;;
74912;SDS011;63878;55.624;37.304;2024-01-25T22:20:08;33.80;;;15.43;;
74912;SDS011;63878;55.624;37.304;2024-01-25T22:30:08;34.28;;;15.10;;
74912;SDS011;63878;55.624;37.304;2024-01-25T22:40:10;30.52;;;13.00;;
74912;SDS011;63878;55.624;37.304;2024-01-25T22:50:11;35.83;;;14.63;;
74912;SDS011;63878;55.624;37.304;2024-01-25T23:00:12;32.47;;;16.35;;
74912;SDS011;63878;55.624;37.304;2024-01-25T23:10:14;30.17;;;13.18;;
74912;SDS011;63878;55.624;37.304;2024-01-25T23:20:15;33.78;;;14.93;;
74912;SDS011;63878;55.624;37.304;2024-01-25T23:30:16;31.93;;;15.03;;
74912;SDS011;63878;55.624;37.304;2024-01-25T23:40:16;30.38;;;14.98;;
74912;SDS011;63878;55.624;37.304;2024-01-25T23:50:17;30.52;;;16.17;;
